createdAt,value
2018-10-17T00:00:19.226Z,14.58
2018-10-17T00:02:48.872Z,14.42
2018-10-17T00:05:18.558Z,14.45
2018-10-17T00:07:48.263Z,14.44
2018-10-17T00:10:17.908Z,14.42
2018-10-17T00:12:48.336Z,14.27
2018-10-17T00:15:17.995Z,14.20
2018-10-17T00:17:47.648Z,14.15
2018-10-17T00:20:17.376Z,14.15
2018-10-17T00:22:47.094Z,14.17
2018-10-17T00:25:16.856Z,14.17
2018-10-17T00:27:46.527Z,14.09
2018-10-17T00:30:16.188Z,14.07
2018-10-17T00:32:45.850Z,14.08
2018-10-17T00:35:15.590Z,14.09
2018-10-17T00:37:45.251Z,14.08
2018-10-17T00:40:14.927Z,14.08
2018-10-17T00:42:44.612Z,14.06
2018-10-17T00:45:14.269Z,14.07
2018-10-17T00:47:43.925Z,14.06
2018-10-17T00:50:13.634Z,14.04
2018-10-17T00:52:43.276Z,14.08
2018-10-17T00:55:12.929Z,14.05
2018-10-17T00:57:42.911Z,13.92
2018-10-17T01:00:12.624Z,13.87
2018-10-17T01:02:42.693Z,13.97
2018-10-17T01:05:12.745Z,13.91
2018-10-17T01:07:42.852Z,13.89
2018-10-17T01:10:12.848Z,13.88
2018-10-17T01:12:42.962Z,13.89
2018-10-17T01:15:13.052Z,13.95
2018-10-17T01:17:42.980Z,13.97
2018-10-17T01:20:12.994Z,14.03
2018-10-17T01:22:43.219Z,14.03
2018-10-17T01:25:13.279Z,13.98
2018-10-17T01:27:43.407Z,13.97
2018-10-17T01:30:13.450Z,14.03
2018-10-17T01:32:43.488Z,13.97
2018-10-17T01:35:13.566Z,13.99
2018-10-17T01:37:43.700Z,13.83
2018-10-17T01:40:13.748Z,13.83
2018-10-17T01:42:43.812Z,13.78
2018-10-17T01:45:13.791Z,13.73
2018-10-17T01:47:43.927Z,13.71
2018-10-17T01:50:13.945Z,13.69
2018-10-17T01:52:43.972Z,13.65
2018-10-17T01:55:14.039Z,13.57
2018-10-17T01:57:44.019Z,13.55
2018-10-17T02:00:13.984Z,13.51
2018-10-17T02:02:44.059Z,13.59
2018-10-17T02:05:14.075Z,13.51
2018-10-17T02:07:44.057Z,13.47
2018-10-17T02:10:14.252Z,13.40
2018-10-17T02:12:44.204Z,13.36
2018-10-17T02:15:14.279Z,13.21
2018-10-17T02:17:44.240Z,13.11
2018-10-17T02:20:14.320Z,13.20
2018-10-17T02:22:44.268Z,13.23
2018-10-17T02:25:14.430Z,13.23
2018-10-17T02:27:45.151Z,13.24
2018-10-17T02:30:15.092Z,13.28
2018-10-17T02:32:45.115Z,13.28
2018-10-17T02:35:17.111Z,13.23
2018-10-17T02:37:47.422Z,12.99
2018-10-17T02:40:17.418Z,12.95
2018-10-17T02:42:47.404Z,13.11
2018-10-17T02:45:17.439Z,13.21
2018-10-17T02:47:47.540Z,13.20
2018-10-17T02:50:17.585Z,13.09
2018-10-17T02:52:47.720Z,12.96
2018-10-17T02:55:17.752Z,12.92
2018-10-17T02:57:47.785Z,12.85
2018-10-17T03:00:17.765Z,12.82
2018-10-17T03:02:47.834Z,12.78
2018-10-17T03:05:17.861Z,12.67
2018-10-17T03:07:47.779Z,12.62
2018-10-17T03:10:17.766Z,12.69
2018-10-17T03:12:47.804Z,12.76
2018-10-17T03:15:17.800Z,12.76
2018-10-17T03:17:47.771Z,12.75
2018-10-17T03:20:17.795Z,12.77
2018-10-17T03:22:47.752Z,12.76
2018-10-17T03:25:17.864Z,12.80
2018-10-17T03:27:47.825Z,12.96
2018-10-17T03:30:17.777Z,13.06
2018-10-17T03:32:47.724Z,13.10
2018-10-17T03:35:17.909Z,13.19
2018-10-17T03:37:47.767Z,13.29
2018-10-17T03:40:17.848Z,13.32
2018-10-17T03:42:47.697Z,13.26
2018-10-17T03:45:17.780Z,13.22
2018-10-17T03:47:47.743Z,13.27
2018-10-17T03:50:17.772Z,13.20
2018-10-17T03:52:47.792Z,13.24
2018-10-17T03:55:17.792Z,13.22
2018-10-17T03:57:47.719Z,13.25
2018-10-17T04:00:17.809Z,13.37
2018-10-17T04:02:47.845Z,13.28
2018-10-17T04:05:17.954Z,13.32
2018-10-17T04:07:47.840Z,13.32
2018-10-17T04:10:17.744Z,13.29
2018-10-17T04:12:47.780Z,13.39
2018-10-17T04:15:17.825Z,13.50
2018-10-17T04:17:47.819Z,13.45
2018-10-17T04:20:17.804Z,13.53
2018-10-17T04:22:55.189Z,13.53
2018-10-17T04:25:25.497Z,13.59
2018-10-17T04:27:55.796Z,13.55
2018-10-17T04:30:26.148Z,13.60
2018-10-17T04:32:56.335Z,13.59
2018-10-17T04:35:26.352Z,13.58
2018-10-17T04:37:56.564Z,13.61
2018-10-17T04:40:26.712Z,13.53
2018-10-17T04:42:56.875Z,13.49
2018-10-17T04:45:26.888Z,13.46
2018-10-17T04:47:57.038Z,13.48
2018-10-17T04:50:27.136Z,13.42
2018-10-17T04:52:57.238Z,13.52
2018-10-17T04:55:27.252Z,13.50
2018-10-17T04:57:57.256Z,13.48
2018-10-17T05:00:27.375Z,13.43
2018-10-17T05:02:58.998Z,13.40
2018-10-17T05:05:29.040Z,13.37
2018-10-17T05:07:59.076Z,13.38
2018-10-17T05:10:28.924Z,13.35
2018-10-17T05:12:59.146Z,13.30
2018-10-17T05:15:28.817Z,13.32
2018-10-17T05:17:58.739Z,13.30
2018-10-17T05:20:28.940Z,13.29
2018-10-17T05:22:59.002Z,13.30
2018-10-17T05:25:29.045Z,13.29
2018-10-17T05:27:59.081Z,13.35
2018-10-17T05:30:29.197Z,13.39
2018-10-17T05:32:59.241Z,13.39
2018-10-17T05:35:29.339Z,13.47
2018-10-17T05:37:59.450Z,13.47
2018-10-17T05:40:29.435Z,13.44
2018-10-17T05:42:59.519Z,13.49
2018-10-17T05:45:29.483Z,13.43
2018-10-17T05:47:59.496Z,13.29
2018-10-17T05:50:29.533Z,13.36
2018-10-17T05:52:59.541Z,13.30
2018-10-17T05:55:29.568Z,13.31
2018-10-17T05:57:59.705Z,13.24
2018-10-17T06:00:29.672Z,13.12
2018-10-17T06:03:00.025Z,13.14
2018-10-17T06:05:30.056Z,13.14
2018-10-17T06:08:00.176Z,13.25
2018-10-17T06:10:30.301Z,13.35
2018-10-17T06:13:00.281Z,13.31
2018-10-17T06:15:30.416Z,13.44
2018-10-17T06:18:00.505Z,13.53
2018-10-17T06:20:30.545Z,13.49
2018-10-17T06:23:00.668Z,13.68
2018-10-17T06:25:30.688Z,13.63
2018-10-17T06:28:00.784Z,13.61
2018-10-17T06:30:30.780Z,13.75
2018-10-17T06:33:00.801Z,13.70
2018-10-17T06:35:30.807Z,13.61
2018-10-17T06:38:00.873Z,13.64
2018-10-17T06:40:30.865Z,13.63
2018-10-17T06:43:00.984Z,13.56
2018-10-17T06:45:30.991Z,13.58
2018-10-17T06:48:01.025Z,13.45
2018-10-17T06:50:31.035Z,13.52
2018-10-17T06:53:01.274Z,13.50
2018-10-17T06:55:31.257Z,13.60
2018-10-17T06:58:01.244Z,13.62
2018-10-17T07:00:31.189Z,13.62
2018-10-17T07:03:01.292Z,13.67
2018-10-17T07:05:31.327Z,13.67
2018-10-17T07:08:01.426Z,13.72
2018-10-17T07:10:31.569Z,13.67
2018-10-17T07:13:01.836Z,13.79
2018-10-17T07:15:31.927Z,13.80
2018-10-17T07:18:01.905Z,13.79
2018-10-17T07:20:31.997Z,13.78
2018-10-17T07:23:02.074Z,13.78
2018-10-17T07:25:32.138Z,13.85
2018-10-17T07:28:02.156Z,13.94
2018-10-17T07:30:32.351Z,14.12
2018-10-17T07:33:02.379Z,14.26
2018-10-17T07:35:32.546Z,14.39
2018-10-17T07:38:02.704Z,14.51
2018-10-17T07:40:32.789Z,14.59
2018-10-17T07:43:02.837Z,14.68
2018-10-17T07:45:32.991Z,14.68
2018-10-17T07:48:03.147Z,14.86
2018-10-17T07:50:33.126Z,14.76
2018-10-17T07:53:03.331Z,14.75
2018-10-17T07:55:33.484Z,14.92
2018-10-17T07:58:03.682Z,14.97
2018-10-17T08:00:33.364Z,15.02
2018-10-17T08:03:03.062Z,15.01
2018-10-17T08:05:32.724Z,15.14
2018-10-17T08:08:02.426Z,15.25
2018-10-17T08:10:32.116Z,15.33
2018-10-17T08:13:02.304Z,15.51
2018-10-17T08:15:31.968Z,15.62
2018-10-17T08:18:01.919Z,15.69
2018-10-17T08:20:31.599Z,15.79
2018-10-17T08:23:01.258Z,15.91
2018-10-17T08:25:30.978Z,15.98
2018-10-17T08:28:00.648Z,16.07
2018-10-17T08:30:30.312Z,16.21
2018-10-17T08:32:59.980Z,16.44
2018-10-17T08:35:29.835Z,16.53
2018-10-17T08:37:59.444Z,16.66
2018-10-17T08:40:29.124Z,16.88
2018-10-17T08:42:58.784Z,17.09
2018-10-17T08:45:28.496Z,17.24
2018-10-17T08:47:58.197Z,17.32
2018-10-17T08:50:27.871Z,17.58
2018-10-17T08:52:57.533Z,17.66
2018-10-17T08:55:27.216Z,17.78
2018-10-17T08:57:57.061Z,18.11
2018-10-17T09:00:26.708Z,18.19
2018-10-17T09:02:56.408Z,18.47
2018-10-17T09:05:26.102Z,18.48
2018-10-17T09:07:55.795Z,18.67
2018-10-17T09:10:25.456Z,18.91
2018-10-17T09:12:55.136Z,19.13
2018-10-17T09:15:24.866Z,19.29
2018-10-17T09:17:54.515Z,19.39
2018-10-17T09:20:24.497Z,19.52
2018-10-17T09:22:53.883Z,19.59
2018-10-17T09:25:23.661Z,19.64
2018-10-17T09:27:53.341Z,19.77
2018-10-17T09:30:23.072Z,19.87
2018-10-17T09:32:52.705Z,20.05
2018-10-17T09:35:22.385Z,20.15
2018-10-17T09:37:52.040Z,20.31
2018-10-17T09:40:21.752Z,20.39
2018-10-17T09:42:51.435Z,20.48
2018-10-17T09:45:21.173Z,20.55
2018-10-17T09:47:50.862Z,20.67
2018-10-17T09:50:20.580Z,20.78
2018-10-17T09:52:50.244Z,20.88
2018-10-17T09:55:19.937Z,21.04
2018-10-17T09:57:49.600Z,21.09
2018-10-17T10:00:24.384Z,21.17
2018-10-17T10:02:54.068Z,21.33
2018-10-17T10:05:23.775Z,21.53
2018-10-17T10:07:53.459Z,21.54
2018-10-17T10:10:23.149Z,21.55
2018-10-17T10:12:52.812Z,21.71
2018-10-17T10:15:22.493Z,21.81
2018-10-17T10:17:52.158Z,21.90
2018-10-17T10:20:21.833Z,22.01
2018-10-17T10:22:51.537Z,22.11
2018-10-17T10:25:21.341Z,22.23
2018-10-17T10:27:51.051Z,22.25
2018-10-17T10:30:20.783Z,22.26
2018-10-17T10:32:50.384Z,22.25
2018-10-17T10:35:20.122Z,22.33
2018-10-17T10:37:49.784Z,22.49
2018-10-17T10:40:19.504Z,22.48
2018-10-17T10:42:49.188Z,22.38
2018-10-17T10:45:19.074Z,22.39
2018-10-17T10:47:48.661Z,22.41
2018-10-17T10:50:18.510Z,22.59
2018-10-17T10:52:48.127Z,22.70
2018-10-17T10:55:17.786Z,22.79
2018-10-17T10:57:47.451Z,22.86
2018-10-17T11:00:17.165Z,22.89
2018-10-17T11:02:46.804Z,22.85
2018-10-17T11:05:16.570Z,22.86
2018-10-17T11:07:46.190Z,22.92
2018-10-17T11:10:15.864Z,22.86
2018-10-17T11:12:45.554Z,22.82
2018-10-17T11:15:15.246Z,22.85
2018-10-17T11:17:44.909Z,22.92
2018-10-17T11:20:14.588Z,23.00
2018-10-17T11:22:44.234Z,23.14
2018-10-17T11:25:13.953Z,23.06
2018-10-17T11:27:43.636Z,23.03
2018-10-17T11:30:13.316Z,22.92
2018-10-17T11:32:42.956Z,22.89
2018-10-17T11:35:12.785Z,22.92
2018-10-17T11:37:42.458Z,22.94
2018-10-17T11:40:12.267Z,22.96
2018-10-17T11:42:41.896Z,23.08
2018-10-17T11:45:11.635Z,23.19
2018-10-17T11:47:41.308Z,23.26
2018-10-17T11:50:11.435Z,23.24
2018-10-17T11:52:41.101Z,23.36
2018-10-17T11:55:10.805Z,23.40
2018-10-17T11:57:40.468Z,23.51
2018-10-17T12:00:12.108Z,23.57
2018-10-17T12:02:41.779Z,23.62
2018-10-17T12:05:14.294Z,23.53
2018-10-17T12:07:44.197Z,23.41
2018-10-17T12:10:13.869Z,23.55
2018-10-17T12:12:43.540Z,23.61
2018-10-17T12:15:14.571Z,23.76
2018-10-17T12:17:44.196Z,23.73
2018-10-17T12:20:15.018Z,23.70
2018-10-17T12:22:45.360Z,23.63
2018-10-17T12:25:15.579Z,23.66
2018-10-17T12:27:45.308Z,23.52
2018-10-17T12:30:15.716Z,23.41
2018-10-17T12:32:45.337Z,23.43
2018-10-17T12:35:15.035Z,23.48
2018-10-17T12:37:44.945Z,23.53
2018-10-17T12:40:14.704Z,23.50
2018-10-17T12:42:44.311Z,23.56
2018-10-17T12:45:14.012Z,23.57
2018-10-17T12:47:43.811Z,23.60
2018-10-17T12:50:13.492Z,23.68
2018-10-17T12:52:43.460Z,23.78
2018-10-17T12:55:13.148Z,23.83
2018-10-17T12:57:42.788Z,23.89
2018-10-17T13:00:12.488Z,24.04
2018-10-17T13:02:42.172Z,24.16
2018-10-17T13:05:12.000Z,24.19
2018-10-17T13:07:41.652Z,24.03
2018-10-17T13:10:12.153Z,24.06
2018-10-17T13:12:42.094Z,24.00
2018-10-17T13:15:13.630Z,24.18
2018-10-17T13:17:44.512Z,24.34
2018-10-17T13:20:14.476Z,24.51
2018-10-17T13:22:44.168Z,24.62
2018-10-17T13:25:13.834Z,24.55
2018-10-17T13:27:43.585Z,24.68
2018-10-17T13:30:13.280Z,24.78
2018-10-17T13:32:42.972Z,24.87
2018-10-17T13:35:12.732Z,24.91
2018-10-17T13:37:42.504Z,24.85
2018-10-17T13:40:12.211Z,24.94
2018-10-17T13:42:41.885Z,24.94
2018-10-17T13:45:11.532Z,24.94
2018-10-17T13:47:41.207Z,24.85
2018-10-17T13:50:10.936Z,24.64
2018-10-17T13:52:40.608Z,24.39
2018-10-17T13:55:10.358Z,24.26
2018-10-17T13:57:40.071Z,24.13
2018-10-17T14:00:12.049Z,24.03
2018-10-17T14:02:42.920Z,24.10
2018-10-17T14:05:12.608Z,24.22
2018-10-17T14:07:42.286Z,24.38
2018-10-17T14:10:11.937Z,24.59
2018-10-17T14:12:41.640Z,24.72
2018-10-17T14:15:11.388Z,24.81
2018-10-17T14:17:40.992Z,24.83
2018-10-17T14:20:10.645Z,24.89
2018-10-17T14:22:40.329Z,24.81
2018-10-17T14:25:09.995Z,24.66
2018-10-17T14:27:39.722Z,24.46
2018-10-17T14:30:09.798Z,24.33
2018-10-17T14:32:39.456Z,24.20
2018-10-17T14:35:10.908Z,23.96
2018-10-17T14:37:40.721Z,23.72
2018-10-17T14:40:10.352Z,23.57
2018-10-17T14:42:40.036Z,23.47
2018-10-17T14:45:10.808Z,23.29
2018-10-17T14:47:40.582Z,23.26
2018-10-17T14:50:10.256Z,23.28
2018-10-17T14:52:40.001Z,23.44
2018-10-17T14:55:09.740Z,23.60
2018-10-17T14:57:39.472Z,23.67
2018-10-17T15:00:13.178Z,23.67
2018-10-17T15:02:43.099Z,23.67
2018-10-17T15:05:12.842Z,23.54
2018-10-17T15:07:43.245Z,23.41
2018-10-17T15:10:13.014Z,23.27
2018-10-17T15:12:42.692Z,23.12
2018-10-17T15:15:13.250Z,23.03
2018-10-17T15:17:42.903Z,22.86
2018-10-17T15:20:12.569Z,22.70
2018-10-17T15:22:42.248Z,22.67
2018-10-17T15:25:11.914Z,22.52
2018-10-17T15:27:41.616Z,22.51
2018-10-17T15:30:11.363Z,22.35
2018-10-17T15:32:40.988Z,22.29
2018-10-17T15:35:10.632Z,22.20
2018-10-17T15:37:40.340Z,22.09
2018-10-17T15:40:10.054Z,22.02
2018-10-17T15:42:39.712Z,22.05
2018-10-17T15:45:09.430Z,21.91
2018-10-17T15:47:39.345Z,21.72
2018-10-17T15:50:09.125Z,21.67
2018-10-17T15:52:38.816Z,21.59
2018-10-17T15:55:08.525Z,21.54
2018-10-17T15:57:38.229Z,21.44
2018-10-17T16:00:09.869Z,21.40
2018-10-17T16:02:39.787Z,21.30
2018-10-17T16:05:11.136Z,21.19
2018-10-17T16:07:41.177Z,21.11
2018-10-17T16:10:10.833Z,21.05
2018-10-17T16:12:40.481Z,20.96
2018-10-17T16:15:10.732Z,20.85
2018-10-17T16:17:40.402Z,20.75
2018-10-17T16:20:11.813Z,20.70
2018-10-17T16:22:41.864Z,20.62
2018-10-17T16:25:11.562Z,20.53
2018-10-17T16:27:41.327Z,20.39
2018-10-17T16:30:12.440Z,20.30
2018-10-17T16:32:41.993Z,20.19
2018-10-17T16:35:11.724Z,20.15
2018-10-17T16:37:41.503Z,20.08
2018-10-17T16:40:11.234Z,20.06
2018-10-17T16:42:40.912Z,20.00
2018-10-17T16:45:11.500Z,19.92
2018-10-17T16:47:41.260Z,19.89
2018-10-17T16:50:11.093Z,19.82
2018-10-17T16:52:40.648Z,19.71
2018-10-17T16:55:10.334Z,19.64
2018-10-17T16:57:39.993Z,19.58
2018-10-17T17:00:11.177Z,19.51
2018-10-17T17:02:40.816Z,19.44
2018-10-17T17:05:12.577Z,19.42
2018-10-17T17:07:42.452Z,19.40
2018-10-17T17:10:13.324Z,19.29
2018-10-17T17:12:43.088Z,19.22
2018-10-17T17:15:13.027Z,19.15
2018-10-17T17:17:43.017Z,19.05
2018-10-17T17:20:13.115Z,19.07
2018-10-17T17:22:42.827Z,18.99
2018-10-17T17:25:12.656Z,18.83
2018-10-17T17:27:42.342Z,18.70
2018-10-17T17:30:15.375Z,18.60
2018-10-17T17:32:45.420Z,18.56
2018-10-17T17:35:15.180Z,18.55
2018-10-17T17:37:44.849Z,18.53
2018-10-17T17:40:15.322Z,18.48
2018-10-17T17:42:44.978Z,18.46
2018-10-17T17:45:14.632Z,18.32
2018-10-17T17:47:44.347Z,18.30
2018-10-17T17:50:14.007Z,18.25
2018-10-17T17:52:43.680Z,18.18
2018-10-17T17:55:13.379Z,18.07
2018-10-17T17:57:43.099Z,17.92
2018-10-17T18:00:12.880Z,17.84
2018-10-17T18:02:42.660Z,17.87
2018-10-17T18:05:12.342Z,17.88
2018-10-17T18:07:42.329Z,17.76
2018-10-17T18:10:12.052Z,17.64
2018-10-17T18:12:41.840Z,17.61
2018-10-17T18:15:11.618Z,17.54
2018-10-17T18:17:41.312Z,17.56
2018-10-17T18:20:11.068Z,17.49
2018-10-17T18:22:40.749Z,17.48
2018-10-17T18:25:10.433Z,17.32
2018-10-17T18:27:41.472Z,17.28
2018-10-17T18:30:11.105Z,17.24
2018-10-17T18:32:41.006Z,17.20
2018-10-17T18:35:10.773Z,17.15
2018-10-17T18:37:40.453Z,17.03
2018-10-17T18:40:10.240Z,16.99
2018-10-17T18:42:39.896Z,17.02
2018-10-17T18:45:09.593Z,16.92
2018-10-17T18:47:39.378Z,16.91
2018-10-17T18:50:09.145Z,16.91
2018-10-17T18:52:38.810Z,16.92
2018-10-17T18:55:08.872Z,17.11
2018-10-17T18:57:38.551Z,16.95
2018-10-17T19:00:09.905Z,16.83
2018-10-17T19:02:39.628Z,16.84
2018-10-17T19:05:09.340Z,16.77
2018-10-17T19:10:20.081Z,16.64
2018-10-17T19:12:49.728Z,16.63
2018-10-17T19:15:19.434Z,16.61
2018-10-17T19:17:49.121Z,16.59
2018-10-17T19:20:18.776Z,16.57
2018-10-17T19:22:48.470Z,16.52
2018-10-17T19:25:18.185Z,16.56
2018-10-17T19:27:47.987Z,16.54
2018-10-17T19:30:17.666Z,16.49
2018-10-17T19:32:47.384Z,16.53
2018-10-17T19:35:17.079Z,16.53
2018-10-17T19:37:46.744Z,16.49
2018-10-17T19:40:16.449Z,16.51
2018-10-17T19:42:46.125Z,16.42
2018-10-17T19:45:15.879Z,16.32
2018-10-17T19:47:45.532Z,16.26
2018-10-17T19:50:15.204Z,16.08
2018-10-17T19:52:44.866Z,16.03
2018-10-17T19:55:14.563Z,16.11
2018-10-17T19:57:44.239Z,16.05
2018-10-17T20:00:14.829Z,15.97
2018-10-17T20:02:44.508Z,15.83
2018-10-17T20:05:14.260Z,15.78
2018-10-17T20:07:44.071Z,15.69
2018-10-17T20:10:13.694Z,15.66
2018-10-17T20:12:43.377Z,15.68
2018-10-17T20:15:13.137Z,15.68
2018-10-17T20:17:42.766Z,15.64
2018-10-17T20:20:12.468Z,15.63
2018-10-17T20:22:42.108Z,15.77
2018-10-17T20:25:11.846Z,15.84
2018-10-17T20:27:41.564Z,15.70
2018-10-17T20:30:11.556Z,15.64
2018-10-17T20:32:41.279Z,15.51
2018-10-17T20:35:11.037Z,15.52
2018-10-17T20:37:40.883Z,15.49
2018-10-17T20:40:10.576Z,15.38
2018-10-17T20:42:40.237Z,15.40
2018-10-17T20:45:09.946Z,15.38
2018-10-17T20:47:39.615Z,15.27
2018-10-17T20:50:09.410Z,15.22
2018-10-17T20:52:39.048Z,15.17
2018-10-17T20:55:08.784Z,15.08
2018-10-17T20:57:38.454Z,15.14
2018-10-17T21:00:08.680Z,15.14
2018-10-17T21:02:38.340Z,15.16
2018-10-17T21:05:08.310Z,15.12
2018-10-17T21:07:38.019Z,15.09
2018-10-17T21:10:08.527Z,14.91
2018-10-17T21:12:38.187Z,14.86
2018-10-17T21:15:08.515Z,14.80
2018-10-17T21:17:38.164Z,14.79
2018-10-17T21:20:07.888Z,14.78
2018-10-17T21:22:37.554Z,14.73
2018-10-17T21:25:07.304Z,14.72
2018-10-17T21:27:36.996Z,14.80
2018-10-17T21:30:07.937Z,14.79
2018-10-17T21:32:37.619Z,14.84
2018-10-17T21:35:07.904Z,14.74
2018-10-17T21:37:37.720Z,14.78
2018-10-17T21:40:07.431Z,14.73
2018-10-17T21:42:37.073Z,14.62
2018-10-17T21:45:07.720Z,14.54
2018-10-17T21:47:37.447Z,14.55
2018-10-17T21:50:07.313Z,14.72
2018-10-17T21:52:37.303Z,14.66
2018-10-17T21:55:07.089Z,14.53
2018-10-17T21:57:36.766Z,14.46
2018-10-17T22:00:07.839Z,14.44
2018-10-17T22:02:37.496Z,14.28
2018-10-17T22:05:08.556Z,14.19
2018-10-17T22:07:38.228Z,14.18
2018-10-17T22:10:08.693Z,14.12
2018-10-17T22:12:38.591Z,14.17
2018-10-17T22:15:09.249Z,14.17
2018-10-17T22:17:38.919Z,14.10
2018-10-17T22:20:08.686Z,14.25
2018-10-17T22:22:38.328Z,14.19
2018-10-17T22:25:08.492Z,14.06
2018-10-17T22:27:38.164Z,14.02
2018-10-17T22:30:08.203Z,14.01
2018-10-17T22:32:37.845Z,14.04
2018-10-17T22:35:07.597Z,14.06
2018-10-17T22:37:37.252Z,14.09
2018-10-17T22:40:06.948Z,14.00
2018-10-17T22:42:36.628Z,13.95
2018-10-17T22:45:06.717Z,13.88
2018-10-17T22:47:36.392Z,13.91
2018-10-17T22:50:07.313Z,13.94
2018-10-17T22:52:36.970Z,13.98
2018-10-17T22:55:06.719Z,14.01
2018-10-17T22:57:36.361Z,14.04
2018-10-17T23:00:07.420Z,14.08
2018-10-17T23:02:37.072Z,14.09
2018-10-17T23:05:06.813Z,14.09
2018-10-17T23:07:36.484Z,14.08
2018-10-17T23:10:06.340Z,14.13
2018-10-17T23:12:36.010Z,14.10
2018-10-17T23:15:09.509Z,14.07
2018-10-17T23:17:39.177Z,14.09
2018-10-17T23:20:09.219Z,14.08
2018-10-17T23:22:39.595Z,14.08
2018-10-17T23:25:10.583Z,14.03
2018-10-17T23:27:40.861Z,14.03
2018-10-17T23:30:11.301Z,14.00
2018-10-17T23:32:41.039Z,13.93
2018-10-17T23:35:10.721Z,13.85
2018-10-17T23:37:40.378Z,13.73
2018-10-17T23:40:10.252Z,13.63
2018-10-17T23:42:39.931Z,13.60
2018-10-17T23:45:09.622Z,13.56
2018-10-17T23:47:39.291Z,13.64
2018-10-17T23:50:09.133Z,13.69
2018-10-17T23:52:39.103Z,13.70
2018-10-17T23:55:09.188Z,13.67
2018-10-17T23:57:38.920Z,13.76
